• Join FlightAware (Why Join?)
  • Login
  • US Flag 
02:22PM EDT


 

Airport Tracker/Info


-or-


 

Live Flight TrackerFlight Track Log ✈ UAL5915 ✈ 01-May-2013 ✈ KSDF - KORD

Flight Track Log - Related Links

Times and Time Zones

All times are in EDT time to prevent confusion due to time zone crossing. See the UAL5915 flight status page for this flight to view local times or setup timezone preferences in your user account.

Time Position Orientation Groundspeed Altitude Reporting Facility
EDT Latitude Longitude Course Direction KTS MPH feet Rate Location/Type
05:16PM 38.1500 -85.7167 345° North 176 203 1,700  Level Louisville TRACON
05:18PM 38.0725 -85.7472 197° South 272 313 5,000 1,860 Climbing Indianapolis Center
05:19PM 38.1019 -85.8211 297° West 228 262 6,900 1,920 Climbing Indianapolis Center
05:20PM 38.1939 -85.8475 347° North 284 327 9,000 2,160 Climbing Indianapolis Center
05:21PM 38.2711 -85.8708 347° North 286 329 11,400 2,100 Climbing Indianapolis Center
05:22PM 38.2810 -85.9715 345° North  Level FlightAware Approximate
05:22PM 38.3536 -85.8944 347° North 300 345 13,400  Level Indianapolis Center
05:23PM 38.4475 -85.9214 347° North 334 384 14,000 720 Climbing Indianapolis Center
05:24PM 38.5550 -85.9422 351° North 377 434 15,000 960 Climbing Indianapolis Center
05:25PM 38.6664 -85.9269 North 400 460 16,000 1,260 Climbing Indianapolis Center
05:26PM 38.8025 -85.9094 North 408 470 17,700 1,320 Climbing Indianapolis Center
05:27PM 38.9156 -85.8958 North 409 471 18,800 1,020 Climbing Indianapolis Center
05:28PM 39.0311 -85.8789 North 414 476 19,900 960 Climbing Indianapolis Center
05:29PM 39.1494 -85.8625 North 423 487 20,900 480 Climbing Indianapolis Center
05:30PM 39.2703 -85.8464 North 433 498 21,000 180 Climbing Indianapolis Center
05:31PM 39.3917 -85.8306 North 436 502 21,300 480 Climbing Indianapolis Center
05:32PM 39.5306 -85.8114 North 431 496 22,000 300 Climbing Indianapolis Center
05:33PM 39.6550 -85.7953 North 444 511 22,000  Level Indianapolis Center
05:35PM 39.7806 -85.7772 North 453 521 22,000  Level Indianapolis Center
05:36PM 39.8989 -85.8244 343° North 453 521 22,000  Level Indianapolis Center
05:37PM 40.0153 -85.8883 337° Northwest 453 521 22,000  Level Indianapolis Center
05:38PM 40.1517 -85.9644 337° Northwest 457 526 22,000  Level Indianapolis Center
05:38PM 40.2286 -86.0078 337° Northwest 455 524 22,000  Level Chicago Center
05:39PM 40.3478 -86.1217 324° Northwest 452 520 22,000  Level Chicago Center
05:40PM 40.4458 -86.2239 322° Northwest 449 517 22,000  Level Chicago Center
05:42PM 40.5447 -86.3264 322° Northwest 451 519 22,000  Level Chicago Center
05:43PM 40.6433 -86.4283 322° Northwest 450 518 22,000  Level Chicago Center
05:44PM 40.7392 -86.5311 321° Northwest 453 521 22,000  Level Chicago Center
05:45PM 40.8389 -86.6339 322° Northwest 454 522 22,000  Level Chicago Center
05:46PM 40.9472 -86.7478 322° Northwest 459 528 22,000 -480 Level Chicago Center
05:47PM 41.0628 -86.8681 322° Northwest 445 512 21,100 -1,500 Descending Chicago Center
05:48PM 41.1525 -86.9644 321° Northwest 422 486 19,000 -2,340 Descending Chicago Center
05:49PM 41.2392 -87.0583 321° Northwest 407 468 16,300 -2,820 Descending Chicago Center
05:50PM 41.3239 -87.1506 321° Northwest 400 460 13,200 -2,460 Descending Chicago Center
05:50PM 41.3833 -87.2167 320° Northwest 380 437 12,100 -1,260 Descending Chicago TRACON
05:51PM 41.4667 -87.3167 318° Northwest 390 449 11,100 -600 Descending Chicago TRACON
05:52PM 41.5500 -87.3833 329° Northwest 392 451 11,000 -180 Descending Chicago TRACON
05:53PM 41.5953 -87.4203 329° Northwest 391 450 10,900 -120 Descending Chicago Center
05:54PM 41.6828 -87.5058 324° Northwest 394 453 10,900  Level Chicago Center
05:55PM 41.7661 -87.5964 321° Northwest 393 452 10,900 -360 Level Chicago Center
05:55PM 41.8167 -87.6333 331° Northwest 356 410 10,400 -1,020 Descending Chicago TRACON
05:56PM 41.8833 -87.6833 331° Northwest 320 368 9,500 -1,200 Descending Chicago TRACON
05:57PM 41.9667 -87.6833 360° North 297 342 8,000 -1,980 Descending Chicago TRACON
05:58PM 42.0333 -87.6833 360° North 277 319 5,800 -2,160 Descending Chicago TRACON
05:59PM 42.0833 -87.7500 315° West 256 295 4,000 -1,440 Descending Chicago TRACON
06:00PM 42.0667 -87.8167 251° West 209 241 3,000 -1,140 Descending Chicago TRACON
06:01PM 42.0333 -87.8500 217° Southwest 154 177 1,800 -60 Descending Chicago TRACON
06:03PM 41.9667 -87.8667 191° South 231 266 2,900 720 Climbing Chicago TRACON
06:04PM 41.9667 -87.7833 90° East 258 297 4,100 540 Climbing Chicago TRACON
06:05PM 42.0000 -87.7000 62° Northeast 233 268 4,000 -60 Descending Chicago TRACON
06:06PM 42.0500 -87.6667 26° Northeast 216 249 4,000  Level Chicago TRACON
06:07PM 42.1000 -87.6667 360° North 223 257 4,100 -360 Climbing Chicago TRACON
06:08PM 42.1350 -87.7428 302° West 222 255 3,300 -600 Descending Chicago Center
06:09PM 42.1000 -87.7833 221° Southwest 178 205 3,000 -600 Descending Chicago TRACON
06:10PM 42.0667 -87.8333 228° Southwest 186 214 2,200 -840 Descending Chicago TRACON
06:11PM 42.0333 -87.8667 217° Southwest 159 183 1,400 -840 Descending Chicago TRACON
06:14PM 41.9817 -87.9067 246° West  Level Estimated